createdAt,value
2023-04-10T00:00:20.811Z,6.19
2023-04-10T00:05:23.441Z,6.12
2023-04-10T00:10:28.731Z,6.08
2023-04-10T00:15:32.069Z,6.02
2023-04-10T00:20:35.260Z,5.98
2023-04-10T00:25:38.035Z,5.96
2023-04-10T00:30:40.879Z,5.93
2023-04-10T00:35:43.883Z,5.92
2023-04-10T00:40:46.951Z,5.91
2023-04-10T00:45:50.864Z,5.89
2023-04-10T00:50:54.947Z,5.85
2023-04-10T00:55:58.097Z,5.80
2023-04-10T01:01:00.844Z,5.73
2023-04-10T01:06:27.196Z,5.75
2023-04-10T01:11:52.840Z,5.72
2023-04-10T01:17:07.861Z,5.66
2023-04-10T01:22:14.026Z,5.57
2023-04-10T01:27:37.383Z,5.52
2023-04-10T01:32:41.915Z,5.45
2023-04-10T01:37:48.937Z,5.38
2023-04-10T01:42:55.745Z,5.32
2023-04-10T01:48:05.896Z,5.30
2023-04-10T01:53:09.778Z,5.31
2023-04-10T01:58:13.315Z,5.25
2023-04-10T02:03:17.538Z,5.18
2023-04-10T02:08:42.909Z,5.14
2023-04-10T02:13:47.575Z,5.11
2023-04-10T02:18:53.235Z,5.09
2023-04-10T02:23:58.297Z,5.13
2023-04-10T02:29:00.932Z,5.14
2023-04-10T02:34:04.005Z,5.13
2023-04-10T02:39:08.701Z,5.18
2023-04-10T02:44:21.177Z,5.24
2023-04-10T02:49:23.912Z,5.33
2023-04-10T02:54:27.367Z,5.46
2023-04-10T02:59:30.273Z,5.58
2023-04-10T03:04:34.332Z,5.85
2023-04-10T03:09:38.089Z,6.72
2023-04-10T03:14:41.777Z,7.42
2023-04-10T03:19:44.476Z,8.21
2023-04-10T03:24:47.167Z,8.71
2023-04-10T03:29:50.325Z,9.39
2023-04-10T03:34:53.937Z,10.14
2023-04-10T03:39:56.796Z,10.79
2023-04-10T03:44:59.864Z,11.43
2023-04-10T03:50:03.259Z,11.97
2023-04-10T03:55:14.680Z,12.57
2023-04-10T04:00:18.238Z,13.12
2023-04-10T04:05:25.042Z,13.35
2023-04-10T04:10:50.936Z,14.23
2023-04-10T04:16:01.190Z,14.53
2023-04-10T04:21:20.609Z,15.03
2023-04-10T04:26:52.082Z,15.67
2023-04-10T04:32:13.204Z,16.05
2023-04-10T04:37:34.727Z,16.65
2023-04-10T04:42:52.642Z,17.26
2023-04-10T04:48:18.528Z,17.95
2023-04-10T04:53:44.423Z,18.51
2023-04-10T04:59:05.541Z,19.00
2023-04-10T05:04:25.968Z,19.28
2023-04-10T05:09:28.907Z,19.81
2023-04-10T05:14:51.980Z,20.47
2023-04-10T05:20:18.318Z,21.05
2023-04-10T05:25:50.952Z,21.99
2023-04-10T05:31:19.729Z,22.37
2023-04-10T05:36:51.944Z,22.88
2023-04-10T05:42:18.572Z,23.38
2023-04-10T05:47:28.839Z,23.77
2023-04-10T05:52:42.084Z,24.05
2023-04-10T05:57:57.228Z,24.50
2023-04-10T06:03:18.545Z,24.31
2023-04-10T06:08:27.808Z,23.88
2023-04-10T06:13:30.689Z,24.96
2023-04-10T06:18:35.199Z,24.93
2023-04-10T06:23:39.769Z,24.26
2023-04-10T06:28:42.569Z,25.26
2023-04-10T06:33:49.995Z,25.73
2023-04-10T06:38:53.574Z,24.88
2023-04-10T06:43:56.660Z,26.18
2023-04-10T06:48:59.431Z,26.68
2023-04-10T06:54:02.548Z,26.50
2023-04-10T06:59:05.107Z,26.44
2023-04-10T07:04:07.960Z,27.01
2023-04-10T07:09:10.968Z,27.56
2023-04-10T07:14:13.766Z,27.54
2023-04-10T07:19:17.030Z,24.49
2023-04-10T07:24:19.845Z,25.09
2023-04-10T07:29:22.724Z,26.63
2023-04-10T07:34:26.296Z,27.92
2023-04-10T07:39:32.547Z,27.68
2023-04-10T07:44:36.611Z,27.06
2023-04-10T07:49:39.330Z,28.06
2023-04-10T07:54:42.325Z,27.96
2023-04-10T07:59:45.007Z,28.35
2023-04-10T08:04:47.904Z,28.21
2023-04-10T08:09:50.870Z,28.12
2023-04-10T08:14:53.318Z,26.52
2023-04-10T08:19:56.616Z,27.38
2023-04-10T08:24:59.386Z,28.53
2023-04-10T08:30:02.432Z,28.10
2023-04-10T08:35:06.930Z,28.00
2023-04-10T08:40:10.190Z,28.18
2023-04-10T08:45:12.866Z,28.41
2023-04-10T08:50:17.720Z,28.51
2023-04-10T08:55:21.912Z,26.94
2023-04-10T09:00:25.348Z,27.47
2023-04-10T09:05:29.308Z,27.36
2023-04-10T09:10:32.168Z,27.64
2023-04-10T09:15:55.676Z,27.43
2023-04-10T09:21:07.597Z,27.66
2023-04-10T09:26:28.469Z,26.74
2023-04-10T09:31:36.750Z,26.97
2023-04-10T09:36:43.992Z,27.72
2023-04-10T09:41:51.065Z,28.06
2023-04-10T09:46:54.539Z,28.50
2023-04-10T09:51:57.875Z,28.20
2023-04-10T09:57:00.823Z,27.55
2023-04-10T10:02:04.652Z,27.15
2023-04-10T10:07:08.122Z,26.45
2023-04-10T10:12:13.049Z,26.44
2023-04-10T10:17:21.490Z,27.42
2023-04-10T10:22:26.379Z,26.17
2023-04-10T10:27:35.063Z,25.81
2023-04-10T10:32:38.287Z,25.34
2023-04-10T10:37:42.998Z,26.83
2023-04-10T10:43:08.907Z,26.58
2023-04-10T10:48:11.828Z,26.50
2023-04-10T10:53:35.609Z,26.39
2023-04-10T10:58:53.034Z,25.73
2023-04-10T11:03:57.462Z,26.59
2023-04-10T11:09:02.116Z,24.43
2023-04-10T11:14:07.999Z,25.67
2023-04-10T11:19:19.926Z,23.94
2023-04-10T11:24:24.793Z,24.96
2023-04-10T11:29:27.480Z,24.97
2023-04-10T11:34:32.715Z,24.49
2023-04-10T11:39:35.594Z,23.69
2023-04-10T11:44:44.798Z,23.90
2023-04-10T11:49:56.259Z,22.88
2023-04-10T11:54:59.457Z,23.51
2023-04-10T12:00:05.377Z,23.40
2023-04-10T12:05:09.550Z,23.10
2023-04-10T12:10:14.091Z,23.05
2023-04-10T12:15:29.840Z,22.77
2023-04-10T12:20:32.724Z,21.91
2023-04-10T12:25:35.889Z,21.20
2023-04-10T12:30:38.677Z,20.55
2023-04-10T12:35:45.111Z,19.91
2023-04-10T12:41:01.664Z,19.26
2023-04-10T12:46:06.453Z,18.69
2023-04-10T12:51:09.912Z,18.55
2023-04-10T12:56:13.903Z,18.41
2023-04-10T13:01:17.655Z,18.34
2023-04-10T13:06:21.205Z,18.00
2023-04-10T13:11:24.401Z,18.06
2023-04-10T13:16:27.369Z,17.81
2023-04-10T13:21:30.598Z,17.68
2023-04-10T13:26:33.644Z,17.58
2023-04-10T13:31:36.560Z,17.40
2023-04-10T13:36:39.459Z,17.21
2023-04-10T13:41:43.438Z,17.09
2023-04-10T13:46:46.532Z,16.99
2023-04-10T13:51:49.817Z,16.71
2023-04-10T13:56:55.078Z,16.58
2023-04-10T14:01:58.749Z,16.50
2023-04-10T14:07:02.526Z,16.26
2023-04-10T14:12:05.768Z,16.20
2023-04-10T14:17:09.902Z,16.17
2023-04-10T14:22:22.377Z,16.00
2023-04-10T14:27:25.315Z,15.93
2023-04-10T14:32:28.370Z,15.73
2023-04-10T14:37:31.663Z,15.63
2023-04-10T14:42:34.442Z,15.50
2023-04-10T14:47:37.465Z,15.24
2023-04-10T14:52:41.583Z,15.21
2023-04-10T14:57:51.494Z,14.90
2023-04-10T15:02:55.739Z,14.68
2023-04-10T15:08:00.424Z,14.50
2023-04-10T15:13:03.175Z,14.26
2023-04-10T15:18:05.986Z,14.09
2023-04-10T15:23:09.334Z,13.93
2023-04-10T15:28:12.570Z,13.77
2023-04-10T15:33:16.464Z,13.57
2023-04-10T15:38:20.558Z,13.39
2023-04-10T15:43:24.335Z,13.21
2023-04-10T15:48:30.194Z,13.05
2023-04-10T15:53:35.541Z,12.86
2023-04-10T15:58:43.798Z,12.66
2023-04-10T16:03:49.485Z,12.51
2023-04-10T16:08:58.415Z,12.31
2023-04-10T16:14:31.145Z,12.33
2023-04-10T16:19:35.750Z,12.22
2023-04-10T16:24:40.933Z,12.17
2023-04-10T16:29:44.639Z,12.19
2023-04-10T16:34:49.191Z,12.14
2023-04-10T16:39:52.689Z,12.18
2023-04-10T16:44:58.709Z,12.20
2023-04-10T16:50:07.789Z,12.16
2023-04-10T16:55:12.026Z,12.09
2023-04-10T17:00:15.224Z,11.97
2023-04-10T17:05:18.299Z,11.91
2023-04-10T17:10:22.863Z,11.82
2023-04-10T17:15:25.739Z,11.80
2023-04-10T17:20:28.677Z,11.84
2023-04-10T17:25:32.454Z,11.75
2023-04-10T17:30:35.641Z,11.63
2023-04-10T17:35:38.545Z,11.63
2023-04-10T17:40:42.072Z,11.21
2023-04-10T17:45:44.883Z,11.46
2023-04-10T17:50:49.566Z,11.43
2023-04-10T17:55:52.574Z,11.35
2023-04-10T18:00:55.660Z,11.24
2023-04-10T18:05:59.287Z,11.12
2023-04-10T18:11:02.307Z,10.98
2023-04-10T18:16:05.743Z,10.88
2023-04-10T18:21:13.631Z,10.82
2023-04-10T18:26:18.757Z,10.79
2023-04-10T18:31:21.877Z,10.74
2023-04-10T18:36:25.152Z,10.74
2023-04-10T18:41:30.154Z,10.83
2023-04-10T18:46:35.262Z,10.68
2023-04-10T18:51:39.617Z,10.58
2023-04-10T18:56:43.616Z,10.54
2023-04-10T19:01:46.917Z,10.50
2023-04-10T19:06:49.822Z,10.45
2023-04-10T19:11:53.965Z,10.45
2023-04-10T19:16:57.321Z,10.38
2023-04-10T19:22:06.384Z,10.37
2023-04-10T19:27:09.513Z,10.34
2023-04-10T19:32:12.202Z,10.33
2023-04-10T19:37:17.947Z,10.22
2023-04-10T19:42:20.767Z,10.18
2023-04-10T19:47:23.797Z,10.10
2023-04-10T19:52:26.582Z,9.97
2023-04-10T19:57:29.439Z,10.09
2023-04-10T20:02:33.361Z,10.04
2023-04-10T20:07:36.487Z,9.93
2023-04-10T20:12:39.563Z,9.81
2023-04-10T20:17:42.304Z,9.75
2023-04-10T20:22:45.189Z,9.72
2023-04-10T20:27:47.823Z,9.72
2023-04-10T20:32:50.525Z,9.64
2023-04-10T20:37:53.377Z,9.58
2023-04-10T20:42:56.184Z,9.53
2023-04-10T20:47:59.361Z,9.43
2023-04-10T20:53:04.715Z,9.22
2023-04-10T20:58:07.542Z,9.08
2023-04-10T21:03:10.509Z,8.83
2023-04-10T21:08:15.186Z,8.65
2023-04-10T21:13:18.150Z,8.43
2023-04-10T21:18:21.117Z,8.23
2023-04-10T21:23:23.786Z,8.08
2023-04-10T21:28:26.493Z,7.85
2023-04-10T21:33:29.376Z,7.66
2023-04-10T21:38:32.315Z,7.50
2023-04-10T21:43:35.614Z,7.34
2023-04-10T21:48:38.480Z,7.24
2023-04-10T21:53:41.219Z,7.12
2023-04-10T21:58:43.904Z,7.07
2023-04-10T22:03:46.572Z,7.00
2023-04-10T22:08:49.550Z,6.90
2023-04-10T22:13:52.851Z,6.87
2023-04-10T22:18:56.720Z,6.97
2023-04-10T22:23:59.481Z,7.05
2023-04-10T22:29:04.151Z,7.11
2023-04-10T22:34:11.068Z,7.19
2023-04-10T22:39:15.496Z,7.22
2023-04-10T22:44:18.541Z,7.18
2023-04-10T22:49:21.360Z,7.11
2023-04-10T22:54:25.074Z,7.00
2023-04-10T22:59:29.254Z,6.70
2023-04-10T23:04:32.212Z,6.51
2023-04-10T23:09:34.965Z,6.22
2023-04-10T23:14:37.938Z,6.09
2023-04-10T23:19:40.677Z,5.97
2023-04-10T23:24:43.385Z,5.88
2023-04-10T23:29:49.464Z,5.88
2023-04-10T23:34:52.207Z,5.80
2023-04-10T23:39:54.964Z,5.78
2023-04-10T23:44:57.663Z,5.74
2023-04-10T23:50:00.394Z,5.68
2023-04-10T23:55:03.518Z,5.63
